»·PEaware :: ASA344 KSEA-KOAK

ASA344 :: KSEA-KOAK

FLIGHT INFORMATION

Flight Status: Arrived
Operator:
Alaska Airlines
More flights by this operator :: More flights under this callsign
Pilot: Anonymous 25291 (25291)
Aircraft: BOEING 737-800
(B738)
More flights by this aircraft type
Origin: KSEA Seattle-Tacoma Intl
United States
Destination: KOAK Metro Oakland Intl
United States
More flights between these airports :: More routes between these airports
Route: HAROB6 HISKU Q5 HUPTU SPAMY WNDSR2
File this flight plan on PilotEdge
Remarks:
Altitude:
(Current/Filed)
35,000ft
Speed:
(Current/Filed)
450kts
Departed: 17-Nov-19 02:27 PM
Arrived: 17-Nov-19 04:05 PM
Distance/Time
Traveled:
584nm/1:38
Distance/Time
To Go:
Arrived

Flight Plot

Page will automatically refresh every two minutes.

Flight plan parsing failed; only flown route is shown


Map Options




Map Legend


Flown Route
Filed Route
Departure Airport
Arrival Airport
Navaid (VOR, NDB)
Fix

Horizontal Profiles

Position Reports

Time Latitude Longitude Heading Altitude Ground
Speed
17-Nov-19 14:04 47.445633 -122.303198 269 434ft 0kts
17-Nov-19 14:05 47.445633 -122.303198 269 434ft 0kts
17-Nov-19 14:06 47.445633 -122.303198 269 434ft 0kts
17-Nov-19 14:07 47.445633 -122.303198 269 434ft 0kts
17-Nov-19 14:08 47.445633 -122.303198 269 434ft 0kts
17-Nov-19 14:09 47.445633 -122.303198 269 434ft 0kts
17-Nov-19 14:10 47.445633 -122.303198 269 434ft 0kts
17-Nov-19 14:11 47.445633 -122.303198 269 434ft 0kts
17-Nov-19 14:12 47.445633 -122.303198 269 434ft 0kts
17-Nov-19 14:13 47.445633 -122.303198 269 434ft 0kts
17-Nov-19 14:14 47.445633 -122.303198 269 434ft 0kts
17-Nov-19 14:15 47.445634 -122.303154 269 434ft 2kts
17-Nov-19 14:16 47.445790 -122.302324 220 434ft 2kts
17-Nov-19 14:17 47.446319 -122.301891 208 434ft 2kts
17-Nov-19 14:18 47.446830 -122.301437 235 434ft 2kts
17-Nov-19 14:19 47.446905 -122.301194 252 434ft 0kts
17-Nov-19 14:20 47.446905 -122.301194 252 434ft 0kts
17-Nov-19 14:21 47.447180 -122.303031 309 434ft 10kts
17-Nov-19 14:22 47.448064 -122.306280 350 434ft 11kts
17-Nov-19 14:23 47.453267 -122.306275 1 434ft 25kts
17-Nov-19 14:24 47.461572 -122.306199 1 434ft 12kts
17-Nov-19 14:25 47.463647 -122.307162 247 434ft 8kts
17-Nov-19 14:26 47.443425 -122.307926 181 715ft 167kts
17-Nov-19 14:27 47.389949 -122.305296 184 3567ft 215kts
17-Nov-19 14:28 47.326317 -122.312221 193 7170ft 228kts
17-Nov-19 14:29 47.303264 -122.387407 274 10229ft 243kts
17-Nov-19 14:30 47.308316 -122.487917 272 13641ft 247kts
17-Nov-19 14:31 47.311273 -122.597377 272 15753ft 297kts
17-Nov-19 14:33 47.314516 -122.716885 272 19228ft 302kts
17-Nov-19 14:34 47.297970 -122.837413 253 22543ft 311kts
17-Nov-19 14:35 47.265999 -122.956534 254 25562ft 315kts
17-Nov-19 14:36 47.218044 -123.068342 231 28224ft 347kts
17-Nov-19 14:37 47.139180 -123.155228 229 30590ft 360kts
17-Nov-19 14:38 47.041001 -123.211630 200 33155ft 413kts
17-Nov-19 14:39 46.921828 -123.201229 191 35114ft 435kts
17-Nov-19 14:40 46.797532 -123.187417 190 35191ft 447kts
17-Nov-19 14:41 46.674283 -123.173873 190 35216ft 445kts
17-Nov-19 14:42 46.550123 -123.160232 190 35215ft 445kts
17-Nov-19 14:43 46.426141 -123.146699 190 35216ft 445kts
17-Nov-19 14:44 46.302688 -123.133279 190 35235ft 445kts
17-Nov-19 14:45 46.179081 -123.119907 190 35254ft 445kts
17-Nov-19 14:46 46.055276 -123.106569 190 35254ft 445kts
17-Nov-19 14:47 45.931148 -123.093260 190 35255ft 445kts
17-Nov-19 14:48 45.811940 -123.080535 190 35253ft 446kts
17-Nov-19 14:49 45.688824 -123.067444 190 35253ft 446kts
17-Nov-19 14:49 45.585277 -123.056485 190 35254ft 447kts
17-Nov-19 14:51 45.441035 -123.041278 190 35254ft 446kts
17-Nov-19 14:52 45.317293 -123.028304 190 35257ft 447kts
17-Nov-19 14:53 45.193147 -123.015343 190 35259ft 449kts
17-Nov-19 14:53 45.089230 -123.004522 189 35260ft 448kts
17-Nov-19 14:54 44.963731 -122.991687 185 35255ft 476kts
17-Nov-19 14:56 44.808539 -122.975480 185 35245ft 476kts
17-Nov-19 14:56 44.697977 -122.964193 185 35253ft 479kts
17-Nov-19 14:57 44.564676 -122.950548 185 35262ft 479kts
17-Nov-19 14:59 44.410344 -122.941260 188 35275ft 475kts
17-Nov-19 14:59 44.299726 -122.937998 188 35276ft 476kts
17-Nov-19 15:00 44.167237 -122.933924 188 35276ft 476kts
17-Nov-19 15:01 44.034011 -122.929859 188 35276ft 476kts
17-Nov-19 15:02 43.901337 -122.925819 188 35277ft 475kts
17-Nov-19 15:03 43.769403 -122.921835 188 35276ft 476kts
17-Nov-19 15:04 43.636072 -122.917811 188 35275ft 476kts
17-Nov-19 15:05 43.502839 -122.913812 188 35276ft 476kts
17-Nov-19 15:06 43.370953 -122.909875 188 35275ft 476kts
17-Nov-19 15:07 43.238436 -122.905929 188 35266ft 477kts
17-Nov-19 15:08 43.105816 -122.902010 188 35268ft 476kts
17-Nov-19 15:09 42.972461 -122.898095 186 35271ft 480kts
17-Nov-19 15:10 42.837301 -122.894114 185 35273ft 485kts
17-Nov-19 15:11 42.702222 -122.890161 185 35274ft 484kts
17-Nov-19 15:12 42.567001 -122.886228 185 35275ft 484kts
17-Nov-19 15:13 42.431938 -122.882349 185 35275ft 484kts
17-Nov-19 15:14 42.297145 -122.878495 185 35276ft 484kts
17-Nov-19 15:15 42.162023 -122.874631 185 35277ft 484kts
17-Nov-19 15:16 42.027027 -122.870792 185 35286ft 484kts
17-Nov-19 15:17 41.892384 -122.866975 185 35312ft 484kts
17-Nov-19 15:18 41.756853 -122.863150 185 35312ft 484kts
17-Nov-19 15:19 41.621770 -122.859356 185 35312ft 484kts
17-Nov-19 15:20 41.486939 -122.855581 185 35313ft 484kts
17-Nov-19 15:21 41.351785 -122.851813 185 35313ft 484kts
17-Nov-19 15:22 41.216631 -122.844251 183 35314ft 486kts
17-Nov-19 15:23 41.081751 -122.836193 182 35285ft 486kts
17-Nov-19 15:24 40.945969 -122.828107 180 35112ft 483kts
17-Nov-19 15:25 40.814038 -122.820299 180 35101ft 483kts
17-Nov-19 15:26 40.678702 -122.812311 180 35100ft 483kts
17-Nov-19 15:27 40.544238 -122.804410 180 35101ft 483kts
17-Nov-19 15:28 40.409212 -122.796507 180 35101ft 483kts
17-Nov-19 15:29 40.274658 -122.788663 180 35103ft 483kts
17-Nov-19 15:30 40.143785 -122.781017 180 34893ft 450kts
17-Nov-19 15:31 40.018746 -122.773834 180 32837ft 450kts
17-Nov-19 15:32 39.892723 -122.766567 180 30645ft 452kts
17-Nov-19 15:33 39.768038 -122.759400 180 28965ft 442kts
17-Nov-19 15:34 39.646561 -122.752453 179 27310ft 432kts
17-Nov-19 15:35 39.528021 -122.745311 176 25689ft 423kts
17-Nov-19 15:36 39.416019 -122.701172 159 24162ft 416kts
17-Nov-19 15:37 39.308221 -122.645864 159 24101ft 419kts
17-Nov-19 15:38 39.199303 -122.593530 168 23757ft 412kts
17-Nov-19 15:39 39.086885 -122.574870 175 23106ft 407kts
17-Nov-19 15:40 38.974001 -122.551866 168 23103ft 409kts
17-Nov-19 15:41 38.863831 -122.524104 167 21858ft 401kts
17-Nov-19 15:42 38.754958 -122.496926 167 19539ft 411kts
17-Nov-19 15:43 38.641260 -122.472283 172 17371ft 414kts
17-Nov-19 15:44 38.527642 -122.455211 172 15206ft 411kts
17-Nov-19 15:45 38.416761 -122.438340 172 13076ft 376kts
17-Nov-19 15:46 38.317247 -122.423236 172 11151ft 342kts
17-Nov-19 15:47 38.229464 -122.409938 172 10270ft 296kts
17-Nov-19 15:48 38.148040 -122.397458 170 9122ft 294kts
17-Nov-19 15:49 38.065771 -122.384846 171 7775ft 297kts
17-Nov-19 15:50 37.993466 -122.352051 142 7024ft 276kts
17-Nov-19 15:51 37.931093 -122.292906 141 7024ft 276kts
17-Nov-19 15:52 37.873011 -122.237559 141 6742ft 271kts
17-Nov-19 15:53 37.810717 -122.178309 142 5531ft 274kts
17-Nov-19 15:54 37.759280 -122.112487 126 5011ft 249kts
17-Nov-19 15:55 37.720745 -122.050664 126 5010ft 201kts
17-Nov-19 15:56 37.686966 -121.995241 123 5018ft 198kts
17-Nov-19 15:57 37.652339 -121.942335 157 4380ft 196kts
17-Nov-19 15:58 37.607252 -121.972332 223 4022ft 190kts
17-Nov-19 15:59 37.586605 -122.025590 298 3462ft 179kts
17-Nov-19 16:00 37.611978 -122.076491 301 2688ft 173kts
17-Nov-19 16:01 37.641099 -122.124086 309 1880ft 170kts
17-Nov-19 16:02 37.671383 -122.169294 309 970ft 169kts
17-Nov-19 16:03 37.699162 -122.210926 310 137ft 145kts
17-Nov-19 16:04 37.712326 -122.230164 323 11ft 27kts
17-Nov-19 16:05 37.714837 -122.230654 104 11ft 7kts
17-Nov-19 16:06 37.711915 -122.226140 130 11ft 21kts
17-Nov-19 16:07 37.712760 -122.222346 53 11ft 0kts
17-Nov-19 16:08 37.712113 -122.220753 133 11ft 18kts
17-Nov-19 16:09 37.709487 -122.215002 30 11ft 15kts
17-Nov-19 16:10 37.711098 -122.214488 314 11ft 0kts

Navigation Log

Ident Type
Flight plan parsing failed, navigation log unavailable